createdAt,value
2018-09-06T00:03:17.472Z,18.53
2018-09-06T00:08:20.922Z,26.67
2018-09-06T00:13:24.313Z,19.90
2018-09-06T00:18:27.886Z,22.53
2018-09-06T00:23:31.462Z,17.83
2018-09-06T00:28:34.852Z,19.10
2018-09-06T00:33:38.639Z,17.75
2018-09-06T00:38:42.111Z,20.20
2018-09-06T00:43:45.721Z,17.33
2018-09-06T00:48:49.183Z,19.33
2018-09-06T00:53:52.610Z,21.63
2018-09-06T00:58:56.325Z,21.03
2018-09-06T01:03:59.793Z,18.43
2018-09-06T01:09:03.470Z,19.03
2018-09-06T01:14:07.063Z,17.50
2018-09-06T01:19:10.781Z,18.73
2018-09-06T01:24:14.206Z,21.23
2018-09-06T01:29:17.681Z,18.80
2018-09-06T01:34:21.028Z,17.47
2018-09-06T01:39:24.541Z,21.50
2018-09-06T01:44:27.996Z,18.87
2018-09-06T01:49:31.912Z,18.40
2018-09-06T01:54:35.427Z,20.50
2018-09-06T01:59:40.261Z,20.03
2018-09-06T02:04:43.576Z,19.27
2018-09-06T02:09:47.045Z,17.53
2018-09-06T02:14:50.417Z,17.53
2018-09-06T02:19:53.858Z,18.33
2018-09-06T02:24:57.030Z,18.07
2018-09-06T02:30:00.385Z,17.43
2018-09-06T02:35:03.928Z,19.30
2018-09-06T02:40:07.916Z,18.23
2018-09-06T02:45:11.545Z,19.52
2018-09-06T02:50:20.405Z,18.10
2018-09-06T02:55:24.500Z,22.00
2018-09-06T03:00:31.173Z,16.20
2018-09-06T03:05:34.682Z,18.40
2018-09-06T03:10:41.230Z,17.63
2018-09-06T03:15:44.648Z,19.13
2018-09-06T03:20:48.309Z,18.27
2018-09-06T03:25:51.845Z,20.67
2018-09-06T03:30:55.285Z,17.83
2018-09-06T03:35:58.664Z,19.37
2018-09-06T03:41:02.076Z,18.43
2018-09-06T03:46:07.043Z,17.43
2018-09-06T03:51:10.480Z,17.57
2018-09-06T03:56:14.074Z,19.73
2018-09-06T04:01:17.613Z,20.53
2018-09-06T04:06:21.213Z,18.87
2018-09-06T04:11:24.745Z,15.50
2018-09-06T04:16:28.351Z,20.60
2018-09-06T04:21:31.737Z,14.33
2018-09-06T04:26:35.105Z,20.07
2018-09-06T04:31:38.545Z,14.70
2018-09-06T04:36:41.931Z,17.47
2018-09-06T04:41:45.385Z,15.43
2018-09-06T04:46:50.256Z,17.40
2018-09-06T04:51:53.653Z,14.77
2018-09-06T04:56:57.074Z,16.23
2018-09-06T05:02:00.505Z,16.07
2018-09-06T05:07:03.874Z,16.93
2018-09-06T05:12:07.220Z,15.23
2018-09-06T05:17:10.687Z,14.23
2018-09-06T05:22:14.342Z,14.90
2018-09-06T05:27:17.666Z,14.87
2018-09-06T05:32:21.236Z,16.93
2018-09-06T05:37:24.579Z,15.33
2018-09-06T05:42:28.191Z,17.37
2018-09-06T05:47:31.537Z,17.10
2018-09-06T05:52:34.865Z,19.33
2018-09-06T05:57:38.234Z,15.47
2018-09-06T06:02:41.758Z,19.37
2018-09-06T06:07:56.433Z,17.43
2018-09-06T06:12:59.768Z,15.80
2018-09-06T06:18:03.628Z,18.50
2018-09-06T06:23:07.119Z,17.93
2018-09-06T06:28:10.482Z,18.40
2018-09-06T06:33:14.909Z,17.97
2018-09-06T06:38:18.352Z,18.33
2018-09-06T06:43:21.823Z,20.13
2018-09-06T06:48:25.270Z,18.80
2018-09-06T06:53:28.908Z,17.70
2018-09-06T06:58:33.012Z,21.87
2018-09-06T07:03:36.464Z,21.00
2018-09-06T07:08:39.885Z,19.93
2018-09-06T07:13:43.286Z,18.53
2018-09-06T07:18:46.593Z,25.77
2018-09-06T07:23:50.081Z,20.83
2018-09-06T07:28:53.728Z,19.03
2018-09-06T07:33:57.256Z,17.90
2018-09-06T07:39:00.766Z,19.40
2018-09-06T07:44:04.338Z,22.80
2018-09-06T07:49:07.726Z,18.37
2018-09-06T07:54:11.443Z,20.97
2018-09-06T07:59:14.839Z,21.33
2018-09-06T08:04:18.564Z,17.50
2018-09-06T08:09:22.021Z,19.50
2018-09-06T08:14:25.637Z,17.17
2018-09-06T08:19:29.222Z,20.03
2018-09-06T08:24:32.562Z,18.30
2018-09-06T08:29:35.939Z,16.30
2018-09-06T08:34:40.041Z,14.57
2018-09-06T08:39:43.469Z,16.17
2018-09-06T08:44:46.808Z,17.20
2018-09-06T08:49:50.370Z,15.17
2018-09-06T08:54:53.836Z,15.77
2018-09-06T08:59:57.282Z,16.83
2018-09-06T09:05:00.786Z,15.20
2018-09-06T09:10:04.410Z,14.80
2018-09-06T09:15:08.085Z,15.03
2018-09-06T09:20:11.413Z,14.93
2018-09-06T09:25:14.749Z,18.83
2018-09-06T09:30:18.273Z,14.80
2018-09-06T09:35:21.640Z,15.13
2018-09-06T09:40:24.978Z,15.53
2018-09-06T09:45:28.048Z,19.43
2018-09-06T09:55:34.104Z,16.73
2018-09-06T10:00:39.652Z,16.23
2018-09-06T10:07:51.446Z,13.03
2018-09-06T10:12:54.773Z,12.80
2018-09-06T10:17:58.241Z,13.13
2018-09-06T10:23:01.804Z,12.63
2018-09-06T10:28:05.343Z,12.60
2018-09-06T10:33:08.838Z,11.50
2018-09-06T10:38:12.457Z,11.87
2018-09-06T10:43:15.931Z,14.13
2018-09-06T10:48:19.476Z,12.93
2018-09-06T10:53:22.890Z,11.97
2018-09-06T10:58:26.264Z,13.40
2018-09-06T11:03:29.669Z,10.63
2018-09-06T11:08:33.189Z,11.93
2018-09-06T11:13:36.693Z,12.43
2018-09-06T11:18:40.197Z,11.77
2018-09-06T11:23:43.569Z,12.67
2018-09-06T11:28:47.074Z,11.03
2018-09-06T11:33:50.529Z,11.03
2018-09-06T11:38:54.038Z,9.73
2018-09-06T11:43:57.565Z,11.70
2018-09-06T11:49:01.102Z,9.35
2018-09-06T11:54:04.633Z,8.90
2018-09-06T11:59:08.278Z,9.97
2018-09-06T12:04:11.902Z,10.90
2018-09-06T12:09:15.467Z,12.73
2018-09-06T12:14:18.778Z,11.57
2018-09-06T12:19:22.498Z,9.57
2018-09-06T12:24:26.005Z,10.23
2018-09-06T12:29:29.419Z,9.43
2018-09-06T12:34:32.822Z,9.40
2018-09-06T12:39:36.157Z,9.10
2018-09-06T12:44:39.542Z,11.60
2018-09-06T12:49:43.075Z,12.77
2018-09-06T12:54:46.580Z,11.50
2018-09-06T12:59:50.015Z,11.97
2018-09-06T13:04:53.612Z,7.87
2018-09-06T13:09:57.248Z,7.10
2018-09-06T13:15:00.788Z,8.60
2018-09-06T13:20:03.956Z,9.28
2018-09-06T13:25:07.536Z,7.43
2018-09-06T13:30:11.028Z,9.13
2018-09-06T13:35:14.504Z,9.23
2018-09-06T13:40:18.147Z,8.75
2018-09-06T13:45:21.900Z,8.07
2018-09-06T13:50:25.256Z,8.27
2018-09-06T13:55:28.769Z,8.90
2018-09-06T14:00:32.323Z,9.33
2018-09-06T14:05:35.793Z,9.20
2018-09-06T14:10:39.208Z,6.83
2018-09-06T14:15:43.370Z,7.94
2018-09-06T14:20:46.885Z,8.83
2018-09-06T14:25:50.429Z,10.47
2018-09-06T14:30:53.807Z,8.07
2018-09-06T14:35:57.417Z,10.27
2018-09-06T14:41:00.819Z,8.43
2018-09-06T14:46:05.128Z,8.60
2018-09-06T14:51:08.649Z,7.55
2018-09-06T14:56:12.174Z,8.75
2018-09-06T15:01:15.419Z,7.90
2018-09-06T15:06:19.020Z,9.63
2018-09-06T15:11:22.424Z,8.98
2018-09-06T15:16:25.871Z,14.78
2018-09-06T15:21:29.477Z,9.65
2018-09-06T15:26:32.938Z,9.98
2018-09-06T15:31:36.555Z,7.85
2018-09-06T15:36:39.948Z,7.95
2018-09-06T15:41:43.377Z,12.40
2018-09-06T15:46:46.812Z,9.35
2018-09-06T15:51:50.298Z,7.85
2018-09-06T15:56:53.794Z,8.83
2018-09-06T16:01:57.205Z,9.70
2018-09-06T16:07:00.769Z,10.05
2018-09-06T16:12:04.159Z,8.98
2018-09-06T16:17:08.644Z,11.00
2018-09-06T16:22:12.071Z,9.88
2018-09-06T16:27:15.464Z,10.00
2018-09-06T16:32:19.085Z,7.40
2018-09-06T16:37:22.500Z,10.00
2018-09-06T16:42:25.908Z,7.25
2018-09-06T16:47:29.506Z,10.70
2018-09-06T16:52:33.104Z,9.13
2018-09-06T16:57:36.594Z,8.40
2018-09-06T17:02:40.130Z,10.00
2018-09-06T17:07:43.841Z,7.87
2018-09-06T17:12:47.581Z,9.17
2018-09-06T17:17:50.955Z,8.43
2018-09-06T17:22:54.365Z,9.47
2018-09-06T17:27:57.970Z,8.80
2018-09-06T17:33:01.429Z,11.10
2018-09-06T17:38:04.797Z,10.97
2018-09-06T17:43:08.193Z,11.13
2018-09-06T17:48:11.810Z,9.63
2018-09-06T17:53:15.656Z,10.80
2018-09-06T17:58:19.321Z,12.07
2018-09-06T18:03:22.793Z,8.17
2018-09-06T18:08:26.362Z,11.40
2018-09-06T18:13:29.933Z,12.07
2018-09-06T18:18:33.513Z,10.80
2018-09-06T18:23:37.235Z,10.43
2018-09-06T18:28:41.104Z,11.57
2018-09-06T18:33:44.698Z,13.90
2018-09-06T18:38:49.052Z,10.40
2018-09-06T18:43:52.615Z,12.20
2018-09-06T18:48:56.168Z,10.43
2018-09-06T18:53:59.720Z,13.37
2018-09-06T18:59:03.104Z,10.37
2018-09-06T19:04:06.664Z,11.30
2018-09-06T19:09:11.519Z,14.43
2018-09-06T19:14:15.677Z,12.87
2018-09-06T19:19:19.371Z,11.80
2018-09-06T19:24:22.828Z,13.37
2018-09-06T19:29:26.708Z,12.70
2018-09-06T19:34:30.751Z,13.83
2018-09-06T19:39:34.393Z,13.80
2018-09-06T19:44:38.718Z,17.00
2018-09-06T19:49:42.830Z,12.60
2018-09-06T19:54:46.988Z,12.60
2018-09-06T19:59:50.423Z,13.23
2018-09-06T20:04:54.452Z,12.20
2018-09-06T20:09:57.791Z,12.70
2018-09-06T20:15:01.599Z,13.07
2018-09-06T20:20:05.467Z,13.63
2018-09-06T20:25:10.565Z,16.13
2018-09-06T20:30:14.406Z,13.17
2018-09-06T20:35:17.789Z,12.93
2018-09-06T20:40:21.383Z,17.57
2018-09-06T20:45:25.100Z,15.93
2018-09-06T20:50:29.461Z,14.10
2018-09-06T20:55:33.188Z,14.60
2018-09-06T21:00:36.714Z,14.17
2018-09-06T21:05:40.554Z,14.23
2018-09-06T21:10:44.923Z,16.60
2018-09-06T21:15:48.361Z,12.20
2018-09-06T21:20:51.825Z,15.90
2018-09-06T21:25:55.514Z,17.10
2018-09-06T21:30:58.956Z,13.23
2018-09-06T21:36:02.303Z,13.33
2018-09-06T21:41:05.729Z,13.00
2018-09-06T21:46:09.120Z,15.20
2018-09-06T21:51:12.535Z,16.67
2018-09-06T21:56:15.858Z,15.93
2018-09-06T22:01:19.332Z,15.33
2018-09-06T22:06:22.696Z,14.13
2018-09-06T22:11:26.205Z,15.80
2018-09-06T22:16:29.636Z,13.60
2018-09-06T22:21:33.201Z,15.97
2018-09-06T22:26:36.664Z,17.03
2018-09-06T22:31:40.149Z,13.50
2018-09-06T22:36:43.587Z,14.27
2018-09-06T22:41:46.964Z,14.90
2018-09-06T22:46:50.412Z,13.33
2018-09-06T22:51:53.908Z,16.03
2018-09-06T22:56:57.405Z,19.10
2018-09-06T23:02:00.784Z,16.77
2018-09-06T23:07:04.256Z,20.67
2018-09-06T23:12:07.708Z,17.80
2018-09-06T23:17:11.072Z,16.10
2018-09-06T23:22:15.090Z,14.63
2018-09-06T23:27:18.708Z,15.83
2018-09-06T23:32:22.305Z,13.60
2018-09-06T23:37:25.820Z,15.70
2018-09-06T23:42:29.248Z,15.57
2018-09-06T23:47:32.810Z,15.87
2018-09-06T23:52:36.451Z,15.73
2018-09-06T23:57:40.043Z,13.57
